Hauptseite
METAR-TAF:

METAR-TAF

Flughäfen :

Flughafen Bahrain

Bahrain, Bahrain

Breite: 26-16N, Länge: 050-39E, Höhe: 2 m

Beobachtung

Neuester Wetterbericht von vor 32 Minuten, um 14:30 UTC
Wind 7 kt aus Nord/Nordwest
Temperatur 23°C
Luftfeuchtigkeit 78%
Luftdruck 1011 hPa
Sichtweite: 8000 m

METAR: OBBI 261430Z 33007KT 8000 NSC 23/19 Q1011 NOSIG

Zeit: 18:02 (15:02 UTC)

Prognose

Neuester Wetterbericht von vor 2 Stunden und 37 Minuten, um 12:25 UTC
Gültige Prognose vom 26 um 12 UTC bis 27 um 18 UTC
Wind 12 kt aus Nord/Nordwest
Sichtweite: 7000 m

TAF: OBBI 261225Z 2612/2718 34012KT 7000 NSC

Wetterbeobachtungen und Prognosen von mehr als 4000 Flughäfen (METAR und TAF Bericht).

Die verfügbaren Stationen werden durch gelbe und rote Markierungen auf der Karte dargestellt.

Führen Sie die Maus auf sie, um den Namen der Station zu sehen.

Darauf klicken, um die Beobachtung von Wetterbeobachtungen und Prognosen zu sehen.

Um die Karte zu ändern : klicken Sie auf den grünen Tasten mit einem schwarzen Kreuz Zum Vergrößern, auf den grünen Button mit einem Gedankenstrich zu verkleinern, oder auf die grünen Pfeile für benachbarte Karten.


METAR-TAF: